CheckWX is a tool to help pilots better visualize weather data.  It is not intended as a substitute for an official pre-flight weather briefing.

16:32:15 UTC

KDEQ METAR
J Lynn Helms Sevier County Airport
De Queen, Arkansas, USA
Current

39 mins ago

KDEQ 221553Z AUTO VRB04KT 10SM CLR 31/24 A2997 RMK AO1 SLP142 T03110239
Observed
Aug-22 @ 15:53 UTC
Wind
  • Variable at 4 KTS
Visibility
10 SM
Flight Rules
VFR
Cloud Levels
  • Clear skies
Temperature
31°C / 88°F
Dewpoint
24°C / 75°F
Heat Index
37°C / 98°F
Humidity
66%
Altimeter
29.97" Hg
Pressure
1014.92 hPa
Previous

2 hours ago

KDEQ 221453Z AUTO 25006KT 10SM CLR 29/24 A2996 RMK AO1 SLP140 T02940244 50001
Observed
Aug-22 @ 14:53 UTC
Wind
  • 250° at 6 KTS
Visibility
10 SM
Flight Rules
VFR
Cloud Levels
  • Clear skies
Temperature
29°C / 84°F
Dewpoint
24°C / 75°F
Heat Index
33°C / 92°F
Humidity
74%
Altimeter
29.96" Hg
Pressure
1014.52 hPa
Previous

3 hours ago

KDEQ 221353Z AUTO 00000KT 9SM BKN070 27/24 A2997 RMK AO1 SLP142 T02670239
Observed
Aug-22 @ 13:53 UTC
Visibility
9 SM
Flight Rules
VFR
Cloud Levels
  • Broken at 7,000' AGL
Temperature
27°C / 81°F
Dewpoint
24°C / 75°F
Heat Index
31°C / 87°F
Humidity
84%
Altimeter
29.97" Hg
Pressure
1014.92 hPa